Time;durP1;ratioP1;P1;durP2;ratioP2;P2;SDS_P1;SDS_P2;PMS_P1;PMS_P2;Temp;Humidity;BMP_temperature;BMP_pressure;BME280_temperature;BME280_humidity;BME280_pressure;Samples;Min_cycle;Max_cycle;Signal;HPM_P1;HPM_P2
2021/04/03 00:00:37;;;;;;;;;;;;;;;3.83;100.00;101007.34;5053345;28;19932;-71
2021/04/03 00:03:03;;;;;;;;;;;;;;;3.82;100.00;101002.94;5053877;28;20322;-72
2021/04/03 00:05:29;;;;;;;;;;;;;;;3.83;100.00;100993.91;5052239;28;19947;-72
2021/04/03 00:07:56;;;;;;;;;;;;;;;3.82;100.00;100986.84;5035649;28;19925;-72
2021/04/03 00:10:23;;;;;;;;;;;;;;;3.77;100.00;100990.66;5052507;28;19925;-74
2021/04/03 00:12:49;;;;;;;;;;;;;;;3.66;100.00;100996.56;5055192;28;19925;-75
2021/04/03 00:15:16;;;;;;;;;;;;;;;3.58;100.00;101004.13;5055375;28;19951;-72
2021/04/03 00:17:42;;;;;;;;;;;;;;;3.48;100.00;100993.81;5055295;28;19948;-72
2021/04/03 00:20:09;;;;;;;;;;;;;;;3.47;100.00;101002.81;5053266;28;20487;-72
2021/04/03 00:22:35;;;;;;;;;;;;;;;3.38;100.00;100995.22;5033471;28;20351;-72
2021/04/03 00:25:01;;;;;;;;;;;;;;;3.33;100.00;100997.25;5051313;28;19925;-73
2021/04/03 00:27:27;;;;;;;;;;;;;;;3.23;100.00;100994.09;5051100;28;19970;-73
2021/04/03 00:29:53;;;;;;;;;;;;;;;3.11;100.00;101002.72;5051408;28;20269;-71
2021/04/03 00:32:20;;;;;;;;;;;;;;;3.02;100.00;100995.97;5048050;28;19925;-71
2021/04/03 00:34:45;;;;;;;;;;;;;;;2.94;100.00;101003.47;5031110;28;19933;-72
2021/04/03 00:37:11;;;;;;;;;;;;;;;2.92;100.00;101000.84;5031127;28;20352;-72
2021/04/03 00:39:37;;;;;;;;;;;;;;;2.93;100.00;101002.59;5031072;28;19925;-73
2021/04/03 00:42:13;;;;;;;;;;;;;;;2.90;100.00;101007.22;5030890;28;20020;-71
2021/04/03 00:44:39;;;;;;;;;;;;;;;2.89;100.00;101010.88;5029668;28;19979;-72
2021/04/03 00:47:05;;;;;;;;;;;;;;;2.87;100.00;101010.06;5030205;28;19925;-72
2021/04/03 00:49:32;;;;;;;;;;;;;;;2.87;100.00;101016.28;5031252;28;20036;-71
2021/04/03 00:52:00;;;;;;;;;;;;;;;2.85;100.00;101018.16;5030810;28;19925;-72
2021/04/03 00:54:26;;;;;;;;;;;;;;;2.85;100.00;101013.66;5013622;28;20019;-72
2021/04/03 00:56:52;;;;;;;;;;;;;;;2.82;100.00;101024.53;5049675;28;19943;-72
2021/04/03 00:59:18;;;;;;;;;;;;;;;2.78;100.00;101025.63;5051132;28;20402;-72
2021/04/03 01:01:44;;;;;;;;;;;;;;;2.70;100.00;101027.75;5051028;28;19929;-73
2021/04/03 01:04:11;;;;;;;;;;;;;;;2.64;100.00;101033.38;5051003;28;19924;-71
2021/04/03 01:06:38;;;;;;;;;;;;;;;2.57;100.00;101029.22;5050581;28;19948;-71
2021/04/03 01:09:05;;;;;;;;;;;;;;;2.51;100.00;101033.03;5050940;28;19925;-71
2021/04/03 01:11:34;;;;;;;;;;;;;;;2.44;100.00;101031.56;5050901;28;20457;-71
2021/04/03 01:14:06;;;;;;;;;;;;;;;2.39;100.00;101038.91;5050978;28;19924;-71
2021/04/03 01:16:36;;;;;;;;;;;;;;;2.30;100.00;101029.47;5050567;28;20137;-70
2021/04/03 01:19:23;;;;;;;;;;;;;;;2.21;100.00;101029.84;5037048;28;19924;-70
2021/04/03 01:22:04;;;;;;;;;;;;;;;2.18;100.00;101030.84;5054780;28;19981;-72
2021/04/03 01:24:41;;;;;;;;;;;;;;;2.20;100.00;101036.13;5036607;28;19931;-72
2021/04/03 01:27:18;;;;;;;;;;;;;;;2.22;100.00;101026.22;5054126;28;20410;-71
2021/04/03 01:29:48;;;;;;;;;;;;;;;2.23;100.00;101033.31;5036728;28;19928;-72
2021/04/03 01:32:17;;;;;;;;;;;;;;;2.18;100.00;101034.38;5036470;28;19929;-72
2021/04/03 01:34:44;;;;;;;;;;;;;;;2.11;100.00;101032.00;5036560;28;20154;-70
2021/04/03 01:37:14;;;;;;;;;;;;;;;2.15;100.00;101034.53;5054135;28;19924;-70
2021/04/03 01:39:43;;;;;;;;;;;;;;;2.15;100.00;101033.63;5054018;28;19935;-73
2021/04/03 01:42:11;;;;;;;;;;;;;;;2.14;100.00;101038.13;5054157;28;19925;-71
2021/04/03 01:44:41;;;;;;;;;;;;;;;2.06;100.00;101034.91;5036118;28;19994;-71
2021/04/03 01:47:08;;;;;;;;;;;;;;;1.94;100.00;101036.25;5036074;28;19925;-71
2021/04/03 01:49:37;;;;;;;;;;;;;;;1.84;100.00;101048.25;5054059;28;19979;-72
2021/04/03 01:52:03;;;;;;;;;;;;;;;1.79;100.00;101043.09;5053863;28;19925;-72
2021/04/03 01:54:30;;;;;;;;;;;;;;;1.79;100.00;101045.78;5036255;28;19978;-72
2021/04/03 01:57:03;;;;;;;;;;;;;;;1.74;100.00;101050.44;5053473;28;19925;-71
2021/04/03 01:59:43;;;;;;;;;;;;;;;1.68;100.00;101048.00;5035981;28;19931;-73
2021/04/03 02:02:12;;;;;;;;;;;;;;;1.63;100.00;101052.66;5035850;28;20414;-72
2021/04/03 02:04:39;;;;;;;;;;;;;;;1.61;100.00;101057.22;5035566;28;19931;-72
2021/04/03 02:07:05;;;;;;;;;;;;;;;1.58;100.00;101051.97;5035775;28;20319;-72
2021/04/03 02:09:42;;;;;;;;;;;;;;;1.62;100.00;101050.94;5035782;28;19960;-73
2021/04/03 02:12:20;;;;;;;;;;;;;;;1.72;100.00;101054.97;5035645;28;19924;-73
2021/04/03 02:15:01;;;;;;;;;;;;;;;1.72;100.00;101044.25;5053532;28;19929;-72
2021/04/03 02:17:29;;;;;;;;;;;;;;;1.69;100.00;101055.09;5035574;28;20364;-72
2021/04/03 02:19:55;;;;;;;;;;;;;;;1.69;100.00;101056.91;5035495;28;19960;-72
2021/04/03 02:22:23;;;;;;;;;;;;;;;1.66;100.00;101060.59;5053432;28;19935;-72
2021/04/03 02:25:04;;;;;;;;;;;;;;;1.60;100.00;101058.13;5053235;28;20299;-71
2021/04/03 02:27:30;;;;;;;;;;;;;;;1.57;100.00;101066.28;5035273;28;19925;-73
2021/04/03 02:30:11;;;;;;;;;;;;;;;1.53;100.00;101064.66;5034985;28;19979;-71
2021/04/03 02:32:38;;;;;;;;;;;;;;;1.44;100.00;101071.22;5035329;28;19925;-71
2021/04/03 02:35:05;;;;;;;;;;;;;;;1.44;100.00;101074.78;5053372;28;19925;-71
2021/04/03 02:37:31;;;;;;;;;;;;;;;1.43;100.00;101073.03;5035083;28;20376;-72
2021/04/03 02:39:57;;;;;;;;;;;;;;;1.38;100.00;101082.13;5053142;28;19932;-71
2021/04/03 02:42:25;;;;;;;;;;;;;;;1.35;100.00;101083.16;5035178;28;19928;-72
2021/04/03 02:44:53;;;;;;;;;;;;;;;1.32;100.00;101084.13;5034991;28;19933;-72
2021/04/03 02:47:37;;;;;;;;;;;;;;;1.32;100.00;101093.94;5052388;28;20024;-72
2021/04/03 02:50:05;;;;;;;;;;;;;;;1.28;100.00;101086.97;5035157;28;19932;-72
2021/04/03 02:52:33;;;;;;;;;;;;;;;1.25;100.00;101092.44;5052988;28;19939;-71
2021/04/03 02:55:01;;;;;;;;;;;;;;;1.18;100.00;101091.78;5034913;28;20023;-71
2021/04/03 02:57:28;;;;;;;;;;;;;;;1.16;100.00;101097.19;5052546;28;19925;-71
2021/04/03 02:59:57;;;;;;;;;;;;;;;1.12;100.00;101108.03;5035095;28;20329;-71
2021/04/03 03:02:24;;;;;;;;;;;;;;;1.09;100.00;101118.84;5052574;28;20186;-72
2021/04/03 03:04:52;;;;;;;;;;;;;;;1.06;100.00;101113.63;5052291;28;20406;-71
2021/04/03 03:07:20;;;;;;;;;;;;;;;1.03;100.00;101101.25;5034407;28;20449;-72
2021/04/03 03:09:50;;;;;;;;;;;;;;;1.02;100.00;101111.97;5034777;28;20027;-71
2021/04/03 03:12:17;;;;;;;;;;;;;;;1.00;100.00;101104.00;5052426;28;20354;-72
2021/04/03 03:14:47;;;;;;;;;;;;;;;1.04;100.00;101110.97;5034745;28;19929;-72
2021/04/03 03:17:13;;;;;;;;;;;;;;;1.06;100.00;101116.31;5052229;28;19983;-72
2021/04/03 03:19:43;;;;;;;;;;;;;;;1.00;100.00;101117.38;5052255;28;20006;-72
2021/04/03 03:22:11;;;;;;;;;;;;;;;0.93;100.00;101118.53;5052233;28;19970;-71
2021/04/03 03:24:38;;;;;;;;;;;;;;;0.82;100.00;101122.44;5051946;28;19960;-71
2021/04/03 03:27:06;;;;;;;;;;;;;;;0.79;100.00;101125.22;5034207;28;20011;-72
2021/04/03 03:29:33;;;;;;;;;;;;;;;0.77;100.00;101127.06;5034264;28;20281;-72
2021/04/03 03:31:59;;;;;;;;;;;;;;;0.69;100.00;101131.78;5052040;28;19925;-70
2021/04/03 03:34:27;;;;;;;;;;;;;;;0.69;100.00;101130.94;5034258;28;19925;-71
2021/04/03 03:36:58;;;;;;;;;;;;;;;0.71;100.00;101124.63;5033872;28;19924;-72
2021/04/03 03:39:28;;;;;;;;;;;;;;;0.73;100.00;101129.91;5034274;28;19924;-72
2021/04/03 03:41:57;;;;;;;;;;;;;;;0.70;100.00;101132.69;5050999;28;19963;-72
2021/04/03 03:44:25;;;;;;;;;;;;;;;0.71;100.00;101129.94;5034001;28;19929;-72
2021/04/03 03:46:51;;;;;;;;;;;;;;;0.71;100.00;101123.72;5051548;28;19925;-72
2021/04/03 03:49:17;;;;;;;;;;;;;;;0.67;100.00;101125.63;5051896;28;19933;-72
2021/04/03 03:51:43;;;;;;;;;;;;;;;0.61;100.00;101129.38;5051835;28;19975;-72
2021/04/03 03:54:12;;;;;;;;;;;;;;;0.56;100.00;101127.78;5033902;28;19947;-72
2021/04/03 03:56:39;;;;;;;;;;;;;;;0.68;100.00;101129.19;5051460;28;19928;-73
2021/04/03 03:59:07;;;;;;;;;;;;;;;0.68;100.00;101130.03;5051747;28;20304;-72
2021/04/03 04:01:34;;;;;;;;;;;;;;;0.68;100.00;101134.53;5033713;28;19929;-72
2021/04/03 04:04:03;;;;;;;;;;;;;;;0.69;100.00;101126.44;5051760;28;19931;-72
2021/04/03 04:06:30;;;;;;;;;;;;;;;0.66;100.00;101142.59;5033210;28;19967;-72
2021/04/03 04:08:56;;;;;;;;;;;;;;;0.64;100.00;101128.41;5033804;28;20022;-72
2021/04/03 04:11:24;;;;;;;;;;;;;;;0.61;100.00;101128.50;5033582;28;20403;-72
2021/04/03 04:14:00;;;;;;;;;;;;;;;0.61;100.00;101132.03;5033757;28;20039;-72
2021/04/03 04:16:37;;;;;;;;;;;;;;;0.58;100.00;101140.16;5033210;28;19936;-72
2021/04/03 04:19:05;;;;;;;;;;;;;;;0.54;100.00;101143.00;5033970;28;19925;-71
2021/04/03 04:21:31;;;;;;;;;;;;;;;0.53;100.00;101138.59;5033557;28;19925;-71
2021/04/03 04:23:58;;;;;;;;;;;;;;;0.52;100.00;101152.84;5033724;28;19925;-71
2021/04/03 04:26:26;;;;;;;;;;;;;;;0.56;100.00;101157.16;5033394;28;20299;-72
2021/04/03 04:28:54;;;;;;;;;;;;;;;0.53;100.00;101154.59;5051184;28;20241;-72
2021/04/03 04:31:26;;;;;;;;;;;;;;;0.50;100.00;101150.25;5033577;28;19990;-71
2021/04/03 04:34:00;;;;;;;;;;;;;;;0.54;100.00;101153.69;5033554;28;19932;-71
2021/04/03 04:36:26;;;;;;;;;;;;;;;0.55;100.00;101150.97;5033110;28;19973;-72
2021/04/03 04:38:54;;;;;;;;;;;;;;;0.54;100.00;101156.38;5051915;28;19924;-71
2021/04/03 04:41:22;;;;;;;;;;;;;;;0.61;100.00;101155.22;5033265;28;19924;-72
2021/04/03 04:43:51;;;;;;;;;;;;;;;0.61;100.00;101155.22;5032993;28;20319;-71
2021/04/03 04:46:17;;;;;;;;;;;;;;;0.66;100.00;101162.16;5049137;28;19929;-72
2021/04/03 04:48:49;;;;;;;;;;;;;;;0.69;100.00;101158.50;5030079;28;20015;-72
2021/04/03 04:51:22;;;;;;;;;;;;;;;0.69;100.00;101163.84;5036737;28;19963;-71
2021/04/03 04:53:52;;;;;;;;;;;;;;;0.74;100.00;101164.59;5054330;28;19943;-71
2021/04/03 04:56:23;;;;;;;;;;;;;;;0.77;100.00;101167.16;5036088;28;19925;-71
2021/04/03 04:58:49;;;;;;;;;;;;;;;0.81;100.00;101166.13;5036962;28;19979;-71
2021/04/03 05:01:19;;;;;;;;;;;;;;;0.88;100.00;101168.59;5026188;28;19925;-71
2021/04/03 05:03:46;;;;;;;;;;;;;;;0.90;100.00;101175.63;5052717;28;19935;-71
2021/04/03 05:06:12;;;;;;;;;;;;;;;0.91;100.00;101171.16;5053970;28;20393;-71
2021/04/03 05:08:39;;;;;;;;;;;;;;;1.00;100.00;101186.88;5053942;28;19924;-71
2021/04/03 05:11:05;;;;;;;;;;;;;;;1.03;100.00;101177.88;5054444;28;19925;-71
2021/04/03 05:13:31;;;;;;;;;;;;;;;1.06;100.00;101193.84;5043993;28;19931;-71
2021/04/03 05:15:57;;;;;;;;;;;;;;;1.12;100.00;101193.63;5045774;28;19978;-71
2021/04/03 05:18:23;;;;;;;;;;;;;;;1.18;100.00;101196.09;5035109;28;19972;-70
2021/04/03 05:20:49;;;;;;;;;;;;;;;1.24;100.00;101208.38;5034546;28;19929;-71
2021/04/03 05:23:16;;;;;;;;;;;;;;;1.30;100.00;101209.03;5050019;28;20015;-71
2021/04/03 05:25:42;;;;;;;;;;;;;;;1.45;100.00;101207.63;5050314;28;19948;-72
2021/04/03 05:28:08;;;;;;;;;;;;;;;1.72;100.00;101215.56;5034662;28;19929;-70
2021/04/03 05:30:34;;;;;;;;;;;;;;;1.95;100.00;101212.06;5041348;28;19992;-71
2021/04/03 05:33:00;;;;;;;;;;;;;;;2.26;100.00;101218.03;5054288;28;19979;-72
2021/04/03 05:35:26;;;;;;;;;;;;;;;2.64;100.00;101216.53;5052208;28;20035;-70
2021/04/03 05:37:52;;;;;;;;;;;;;;;3.15;100.00;101221.63;5056836;28;19932;-72
2021/04/03 05:40:18;;;;;;;;;;;;;;;3.35;100.00;101235.06;5054381;28;20023;-71
2021/04/03 05:42:47;;;;;;;;;;;;;;;3.61;100.00;101233.06;5050627;28;20096;-70
2021/04/03 05:45:14;;;;;;;;;;;;;;;3.81;100.00;101221.44;5033868;28;20376;-71
2021/04/03 05:47:40;;;;;;;;;;;;;;;3.93;100.00;101241.50;5017524;28;19956;-71
2021/04/03 05:50:07;;;;;;;;;;;;;;;3.95;100.00;101225.31;5034037;28;19933;-73
2021/04/03 05:52:33;;;;;;;;;;;;;;;4.23;100.00;101226.72;5050868;28;20295;-71
2021/04/03 05:55:00;;;;;;;;;;;;;;;4.32;100.00;101234.34;5053746;28;20299;-71
2021/04/03 05:57:26;;;;;;;;;;;;;;;4.15;100.00;101233.31;5035147;28;20308;-72
2021/04/03 05:59:53;;;;;;;;;;;;;;;4.51;100.00;101240.59;5033773;28;19933;-71
2021/04/03 06:02:19;;;;;;;;;;;;;;;4.55;100.00;101245.84;5035787;28;19925;-71
2021/04/03 06:04:45;;;;;;;;;;;;;;;4.73;100.00;101242.25;5032370;28;19929;-71
2021/04/03 06:07:11;;;;;;;;;;;;;;;4.86;100.00;101239.81;5034403;28;19964;-72
2021/04/03 06:09:37;;;;;;;;;;;;;;;5.00;100.00;101239.16;5033466;28;19929;-71
2021/04/03 06:12:03;;;;;;;;;;;;;;;5.47;100.00;101241.25;5034688;28;19925;-70
2021/04/03 06:14:34;;;;;;;;;;;;;;;6.01;100.00;101246.56;5049780;28;19925;-71
2021/04/03 06:17:01;;;;;;;;;;;;;;;6.05;100.00;101235.59;5052725;28;20002;-71
2021/04/03 06:19:27;;;;;;;;;;;;;;;6.64;100.00;101244.91;5046206;28;20023;-69
2021/04/03 06:21:58;;;;;;;;;;;;;;;7.10;100.00;101244.09;5033170;28;19925;-70
2021/04/03 06:24:24;;;;;;;;;;;;;;;7.47;100.00;101247.31;5033795;28;19925;-69
2021/04/03 06:27:04;;;;;;;;;;;;;;;7.29;100.00;101251.09;5040114;28;19929;-69
2021/04/03 06:29:34;;;;;;;;;;;;;;;7.57;100.00;101258.44;5053041;28;20438;-71
2021/04/03 06:32:00;;;;;;;;;;;;;;;7.25;100.00;101253.09;5053085;28;19929;-71
2021/04/03 06:34:31;;;;;;;;;;;;;;;7.82;100.00;101259.66;5052788;28;19967;-71
2021/04/03 06:36:57;;;;;;;;;;;;;;;8.14;100.00;101273.03;5052671;28;19932;-71
2021/04/03 06:39:23;;;;;;;;;;;;;;;8.51;100.00;101268.88;5052875;28;19983;-71
2021/04/03 06:41:50;;;;;;;;;;;;;;;8.95;100.00;101263.38;5052840;28;19929;-71
2021/04/03 06:44:16;;;;;;;;;;;;;;;9.35;100.00;101274.25;5053018;28;20338;-71
2021/04/03 06:46:48;;;;;;;;;;;;;;;9.44;100.00;101273.66;5034516;28;19929;-71
2021/04/03 06:49:16;;;;;;;;;;;;;;;9.74;99.06;101277.06;5018347;28;19979;-71
2021/04/03 06:51:42;;;;;;;;;;;;;;;10.02;95.58;101276.91;5051898;28;19933;-70
2021/04/03 06:54:09;;;;;;;;;;;;;;;10.50;93.03;101276.25;5052179;28;19924;-72
2021/04/03 06:56:35;;;;;;;;;;;;;;;10.85;89.18;101278.25;5048431;28;20028;-71
2021/04/03 06:59:02;;;;;;;;;;;;;;;11.05;85.43;101271.34;5049791;28;20023;-69
2021/04/03 07:01:36;;;;;;;;;;;;;;;10.71;85.80;101273.81;5051928;28;19925;-72
2021/04/03 07:04:05;;;;;;;;;;;;;;;10.57;83.62;101282.13;5052181;28;19948;-71
2021/04/03 07:06:32;;;;;;;;;;;;;;;10.44;81.69;101279.41;5051864;28;19925;-71
2021/04/03 07:09:00;;;;;;;;;;;;;;;10.30;81.30;101287.63;5034548;28;19959;-72
2021/04/03 07:11:26;;;;;;;;;;;;;;;10.38;85.21;101282.56;5052430;28;19960;-71
2021/04/03 07:13:53;;;;;;;;;;;;;;;11.13;82.44;101273.47;5052317;28;20395;-71
2021/04/03 07:16:20;;;;;;;;;;;;;;;10.85;75.28;101278.25;5051692;28;19925;-71
2021/04/03 07:18:47;;;;;;;;;;;;;;;9.62;80.34;101276.97;5052269;28;19924;-71
2021/04/03 07:21:13;;;;;;;;;;;;;;;9.43;83.33;101279.16;5051990;28;19940;-71
2021/04/03 07:23:40;;;;;;;;;;;;;;;10.44;80.96;101284.84;5052005;28;19924;-71
2021/04/03 07:26:07;;;;;;;;;;;;;;;10.78;78.04;101295.94;5051851;28;20335;-71
2021/04/03 07:28:36;;;;;;;;;;;;;;;10.90;73.10;101286.03;5052037;28;19938;-71
2021/04/03 07:31:02;;;;;;;;;;;;;;;11.38;69.27;101294.25;5054165;28;19932;-72
2021/04/03 07:33:28;;;;;;;;;;;;;;;12.20;64.08;101290.69;5053282;28;19929;-72
2021/04/03 07:35:55;;;;;;;;;;;;;;;11.79;62.53;101291.19;5052854;28;20360;-72
2021/04/03 07:38:21;;;;;;;;;;;;;;;12.19;61.75;101288.94;5051997;28;19925;-70
2021/04/03 07:40:49;;;;;;;;;;;;;;;12.34;56.44;101302.34;5051650;28;19936;-70
2021/04/03 07:43:33;;;;;;;;;;;;;;;12.11;57.20;101296.00;5034776;28;20364;-70
2021/04/03 07:46:00;;;;;;;;;;;;;;;12.62;57.01;101294.69;5053318;28;20002;-70
2021/04/03 07:48:41;;;;;;;;;;;;;;;12.84;55.32;101300.09;5054293;28;20003;-71
2021/04/03 07:51:08;;;;;;;;;;;;;;;13.22;54.31;101298.78;5054402;28;19966;-69
2021/04/03 07:53:35;;;;;;;;;;;;;;;12.75;52.31;101303.59;5052622;28;20027;-70
2021/04/03 07:56:02;;;;;;;;;;;;;;;12.64;52.58;101303.56;5051412;28;19948;-70
2021/04/03 07:58:29;;;;;;;;;;;;;;;12.94;52.70;101307.53;5051068;28;19924;-70
2021/04/03 08:00:55;;;;;;;;;;;;;;;12.60;53.01;101296.63;5051896;28;19929;-70
2021/04/03 08:03:21;;;;;;;;;;;;;;;12.44;51.74;101314.22;5051164;28;19929;-70
2021/04/03 08:05:48;;;;;;;;;;;;;;;13.08;51.74;101312.72;5050990;28;19982;-70
2021/04/03 08:08:14;;;;;;;;;;;;;;;12.65;50.81;101306.16;5051495;28;19929;-71
2021/04/03 08:10:40;;;;;;;;;;;;;;;11.78;52.22;101317.50;5051152;28;19925;-70
2021/04/03 08:13:07;;;;;;;;;;;;;;;12.02;52.83;101319.34;5051421;28;19924;-70
2021/04/03 08:15:34;;;;;;;;;;;;;;;12.28;55.43;101330.91;5050693;28;20387;-70
2021/04/03 08:17:59;;;;;;;;;;;;;;;13.45;52.07;101326.00;5050201;28;20418;-71
2021/04/03 08:20:25;;;;;;;;;;;;;;;13.64;50.28;101328.06;5050708;28;19935;-70
2021/04/03 08:22:58;;;;;;;;;;;;;;;13.87;50.91;101334.28;5050704;28;19928;-70
2021/04/03 08:25:24;;;;;;;;;;;;;;;14.00;49.19;101325.91;5051266;28;19968;-71
2021/04/03 08:27:50;;;;;;;;;;;;;;;13.66;50.17;101338.84;5055502;28;19929;-70
2021/04/03 08:30:23;;;;;;;;;;;;;;;13.14;49.53;101339.44;5057369;28;19978;-70
2021/04/03 08:33:19;;;;;;;;;;;;;;;12.74;51.81;101345.44;5039315;28;20414;-69
2021/04/03 08:35:46;;;;;;;;;;;;;;;12.99;51.82;101347.03;5057091;28;19929;-71
2021/04/03 08:38:23;;;;;;;;;;;;;;;12.96;51.75;101351.84;5057759;28;19931;-71
2021/04/03 08:40:49;;;;;;;;;;;;;;;13.27;51.76;101350.22;5040053;28;20481;-71
2021/04/03 08:43:16;;;;;;;;;;;;;;;13.42;50.31;101350.81;5045939;28;19960;-71
2021/04/03 08:45:43;;;;;;;;;;;;;;;13.15;49.86;101359.41;5037971;28;20083;-71
2021/04/03 08:48:09;;;;;;;;;;;;;;;13.02;51.68;101354.09;5051210;28;19931;-71
2021/04/03 08:50:35;;;;;;;;;;;;;;;11.87;51.55;101360.31;5039583;28;20277;-71
2021/04/03 08:53:02;;;;;;;;;;;;;;;11.13;52.42;101348.66;5057444;28;19925;-71
2021/04/03 08:55:28;;;;;;;;;;;;;;;10.78;55.31;101357.56;5057348;28;19932;-72
2021/04/03 08:57:57;;;;;;;;;;;;;;;11.13;56.88;101354.09;5057422;28;20610;-71
2021/04/03 09:00:23;;;;;;;;;;;;;;;11.88;53.20;101351.19;5057468;28;20061;-71
2021/04/03 09:02:51;;;;;;;;;;;;;;;11.91;52.74;101365.53;5039501;28;19994;-71
2021/04/03 09:05:18;;;;;;;;;;;;;;;11.92;54.25;101359.09;5057097;28;19925;-71
2021/04/03 09:07:44;;;;;;;;;;;;;;;12.53;52.99;101364.34;5057336;28;19929;-71
2021/04/03 09:10:10;;;;;;;;;;;;;;;12.15;52.56;101362.81;5057855;28;20507;-71
2021/04/03 09:12:37;;;;;;;;;;;;;;;13.05;50.14;101359.28;5049046;28;20398;-71
2021/04/03 09:15:03;;;;;;;;;;;;;;;13.81;47.96;101363.97;5049256;28;19976;-70
2021/04/03 09:17:29;;;;;;;;;;;;;;;13.43;47.29;101371.66;5056711;28;19964;-70
2021/04/03 09:20:05;;;;;;;;;;;;;;;12.57;49.34;101376.72;5057208;28;19925;-71
2021/04/03 09:22:35;;;;;;;;;;;;;;;11.17;51.33;101372.81;5057115;28;20016;-71
2021/04/03 09:25:03;;;;;;;;;;;;;;;10.98;55.30;101380.56;5056841;28;20023;-72
2021/04/03 09:27:28;;;;;;;;;;;;;;;10.77;58.07;101382.97;5056915;28;19996;-69
2021/04/03 09:30:04;;;;;;;;;;;;;;;10.55;59.71;101387.22;5056870;28;19924;-70
2021/04/03 09:32:38;;;;;;;;;;;;;;;10.22;60.02;101380.41;5056546;28;19925;-71
2021/04/03 09:35:06;;;;;;;;;;;;;;;9.97;62.72;101375.84;5056613;28;20442;-71
2021/04/03 09:37:32;;;;;;;;;;;;;;;9.54;62.05;101377.75;5055755;28;19924;-70
2021/04/03 09:39:57;;;;;;;;;;;;;;;9.54;60.84;101374.19;5053290;28;20427;-70
2021/04/03 09:42:24;;;;;;;;;;;;;;;11.08;58.38;101370.75;5052289;28;19952;-71
2021/04/03 09:44:51;;;;;;;;;;;;;;;11.75;53.38;101366.69;5052658;28;19925;-69
2021/04/03 09:47:17;;;;;;;;;;;;;;;11.36;51.27;101371.44;5053259;28;19978;-69
2021/04/03 09:49:44;;;;;;;;;;;;;;;10.84;52.77;101366.13;5053312;28;20331;-69
2021/04/03 09:52:11;;;;;;;;;;;;;;;10.61;51.96;101367.78;5053360;28;19924;-70
2021/04/03 09:54:37;;;;;;;;;;;;;;;10.68;51.02;101363.66;5053287;28;19967;-69
2021/04/03 09:57:03;;;;;;;;;;;;;;;11.67;48.09;101358.25;5053420;28;20407;-69
2021/04/03 09:59:30;;;;;;;;;;;;;;;12.60;47.76;101367.44;5053416;28;19932;-69
2021/04/03 10:01:56;;;;;;;;;;;;;;;11.97;46.16;101365.09;5053545;28;19925;-70
2021/04/03 10:04:22;;;;;;;;;;;;;;;10.85;46.48;101367.88;5053396;28;19990;-71
2021/04/03 10:06:48;;;;;;;;;;;;;;;9.96;47.75;101374.09;5034964;28;19925;-70
2021/04/03 10:09:15;;;;;;;;;;;;;;;9.91;50.44;101381.66;5053593;28;19925;-71
2021/04/03 10:11:40;;;;;;;;;;;;;;;9.87;51.33;101376.47;5052994;28;19925;-70
2021/04/03 10:14:06;;;;;;;;;;;;;;;10.25;52.55;101380.22;5053248;28;19931;-71
2021/04/03 10:16:32;;;;;;;;;;;;;;;10.48;48.57;101375.06;5052903;28;19924;-71
2021/04/03 10:18:58;;;;;;;;;;;;;;;10.38;48.71;101374.81;5053099;28;19925;-70
2021/04/03 10:21:24;;;;;;;;;;;;;;;9.62;50.27;101361.00;5053165;28;19928;-69
2021/04/03 10:23:50;;;;;;;;;;;;;;;8.26;52.81;101387.66;5052702;28;19932;-70
2021/04/03 10:26:17;;;;;;;;;;;;;;;8.36;58.28;101391.56;5052743;28;19925;-71
2021/04/03 10:28:43;;;;;;;;;;;;;;;8.35;59.56;101387.09;5052803;28;19924;-70
2021/04/03 10:31:09;;;;;;;;;;;;;;;8.29;59.35;101399.19;5052704;28;20164;-70
2021/04/03 10:33:36;;;;;;;;;;;;;;;8.37;60.03;101394.16;5052889;28;19972;-70
2021/04/03 10:36:02;;;;;;;;;;;;;;;8.35;58.59;101396.09;5052441;28;20054;-71
2021/04/03 10:38:28;;;;;;;;;;;;;;;8.42;58.60;101399.31;5053190;28;20027;-71
2021/04/03 10:40:54;;;;;;;;;;;;;;;8.70;59.96;101401.19;5052685;28;20026;-71
2021/04/03 10:43:20;;;;;;;;;;;;;;;8.83;59.93;101395.88;5034829;28;19939;-69
2021/04/03 10:45:46;;;;;;;;;;;;;;;10.68;52.21;101387.22;5052050;28;20334;-70
2021/04/03 10:48:12;;;;;;;;;;;;;;;12.26;43.41;101370.13;5034786;28;19924;-70
2021/04/03 10:50:40;;;;;;;;;;;;;;;13.39;41.80;101371.03;5051477;28;19933;-70
2021/04/03 10:53:06;;;;;;;;;;;;;;;12.97;40.22;101380.84;5052331;28;20433;-70
2021/04/03 10:55:32;;;;;;;;;;;;;;;11.79;40.62;101383.66;5033990;28;20027;-69
2021/04/03 10:57:58;;;;;;;;;;;;;;;11.34;42.71;101387.00;5052283;28;19925;-71
2021/04/03 11:00:25;;;;;;;;;;;;;;;10.70;43.40;101396.13;5052422;28;19925;-70
2021/04/03 11:02:51;;;;;;;;;;;;;;;9.48;50.03;101398.97;5052419;28;19925;-70
2021/04/03 11:05:17;;;;;;;;;;;;;;;8.81;55.57;101400.50;5051596;28;20023;-70
2021/04/03 11:07:44;;;;;;;;;;;;;;;10.03;56.47;101391.69;5052165;28;19928;-70
2021/04/03 11:10:13;;;;;;;;;;;;;;;9.48;57.17;101394.41;5052164;28;19925;-70
2021/04/03 11:12:39;;;;;;;;;;;;;;;9.09;59.02;101395.19;5051911;28;19931;-70
2021/04/03 11:15:05;;;;;;;;;;;;;;;8.44;64.15;101404.63;5034123;28;20114;-69
2021/04/03 11:17:32;;;;;;;;;;;;;;;7.93;69.03;101405.84;5051941;28;19959;-69
2021/04/03 11:19:58;;;;;;;;;;;;;;;7.67;72.31;101413.66;5034107;28;20409;-70
2021/04/03 11:22:24;;;;;;;;;;;;;;;7.70;76.17;101409.91;5051924;28;20028;-71
2021/04/03 11:24:50;;;;;;;;;;;;;;;7.64;76.03;101419.25;5051851;28;20411;-71
2021/04/03 11:27:16;;;;;;;;;;;;;;;7.72;74.49;101416.06;5051346;28;19925;-71
2021/04/03 11:29:42;;;;;;;;;;;;;;;7.93;72.83;101423.91;5051575;28;19924;-71
2021/04/03 11:32:08;;;;;;;;;;;;;;;8.29;70.25;101418.09;5051653;28;19925;-71
2021/04/03 11:34:35;;;;;;;;;;;;;;;9.44;65.09;101417.28;5051769;28;19924;-71
2021/04/03 11:37:01;;;;;;;;;;;;;;;10.93;58.58;101413.50;5051308;28;19939;-71
2021/04/03 11:39:27;;;;;;;;;;;;;;;11.68;52.42;101414.41;5051446;28;19972;-70
2021/04/03 11:41:52;;;;;;;;;;;;;;;12.93;50.12;101407.47;5051198;28;20031;-71
2021/04/03 11:44:18;;;;;;;;;;;;;;;12.43;46.05;101404.22;5050351;28;19932;-71
2021/04/03 11:46:44;;;;;;;;;;;;;;;12.99;46.85;101406.97;5050506;28;19929;-71
2021/04/03 11:49:10;;;;;;;;;;;;;;;14.09;44.84;101411.59;5050947;28;19925;-71
2021/04/03 11:51:37;;;;;;;;;;;;;;;14.42;43.70;101412.44;5050738;28;19925;-70
2021/04/03 11:54:04;;;;;;;;;;;;;;;14.34;42.15;101406.78;5050601;28;20375;-71
2021/04/03 11:56:30;;;;;;;;;;;;;;;14.37;42.54;101409.22;5050587;28;20035;-72
2021/04/03 11:58:55;;;;;;;;;;;;;;;15.22;43.59;101410.88;5050592;28;19986;-71
2021/04/03 12:01:21;;;;;;;;;;;;;;;15.70;39.90;101408.38;5050236;28;20006;-71
2021/04/03 12:03:47;;;;;;;;;;;;;;;15.35;38.51;101405.16;5032694;28;20456;-69
2021/04/03 12:06:13;;;;;;;;;;;;;;;14.65;38.06;101401.38;5050095;28;19925;-71
2021/04/03 12:08:40;;;;;;;;;;;;;;;13.59;39.29;101398.50;5033007;28;19975;-71
2021/04/03 12:11:06;;;;;;;;;;;;;;;12.65;39.98;101414.25;5047720;28;19972;-70
2021/04/03 12:13:31;;;;;;;;;;;;;;;12.21;43.69;101414.03;5032534;28;19925;-70
2021/04/03 12:15:57;;;;;;;;;;;;;;;11.71;43.05;101414.16;5050167;28;19936;-72
2021/04/03 12:18:23;;;;;;;;;;;;;;;11.46;40.86;101415.97;5050504;28;19928;-71
2021/04/03 12:20:49;;;;;;;;;;;;;;;11.34;41.05;101411.44;5051040;28;19936;-71
2021/04/03 12:23:15;;;;;;;;;;;;;;;11.45;39.83;101416.97;5050675;28;19928;-70
2021/04/03 12:25:41;;;;;;;;;;;;;;;11.69;38.50;101419.72;5050483;28;19954;-72
2021/04/03 12:28:07;;;;;;;;;;;;;;;11.70;37.49;101418.75;5050794;28;20395;-71
2021/04/03 12:30:33;;;;;;;;;;;;;;;12.51;38.05;101416.22;5050681;28;19932;-71
2021/04/03 12:32:59;;;;;;;;;;;;;;;13.35;37.18;101412.28;5051034;28;19972;-71
2021/04/03 12:35:25;;;;;;;;;;;;;;;13.55;35.17;101410.69;5050573;28;19935;-71
2021/04/03 12:37:51;;;;;;;;;;;;;;;13.67;35.93;101420.56;5051036;28;19925;-72
2021/04/03 12:40:17;;;;;;;;;;;;;;;14.85;36.06;101403.22;5050664;28;19924;-71